This is the latest recevied weather packets stored in our database for station/object G4KVI. If no packets are shown the sender has not sent any weather packets the latest 10 day(s).
| Time | Temp. | Humidity | Pressure | Rain* | Wind** | Luminosity | Snow |
|---|---|---|---|---|---|---|---|
| 1787748004 | 25° C | 54% | 1014.1 hPa | 0 mm | - | 712 W/m² | - |
| 1787747704 | 25° C | 55% | 1014.3 hPa | 0 mm | - | 720 W/m² | - |
| 1787747404 | 24.44° C | 57% | 1014.1 hPa | 0 mm | - | 282 W/m² | - |
| 1787747104 | 24.44° C | 55% | 1014 hPa | 0 mm | - | 284 W/m² | - |
| 1787746804 | 25.56° C | 53% | 1014 hPa | 0 mm | - | 261 W/m² | - |
| 1787746504 | 25.56° C | 54% | 1014 hPa | 0 mm | - | 772 W/m² | - |
| 1787746204 | 24.44° C | 57% | 1014.1 hPa | 0 mm | - | 242 W/m² | - |
| 1787745904 | 23.89° C | 58% | 1013.9 hPa | 0 mm | - | 257 W/m² | - |
| 1787745604 | 23.89° C | 58% | 1014.1 hPa | 0 mm | - | 262 W/m² | - |
| 1787745304 | 24.44° C | 57% | 1014.1 hPa | 0 mm | - | 236 W/m² | - |
| 1787745004 | 25° C | 55% | 1014.1 hPa | 0 mm | - | 353 W/m² | - |
| 1787744704 | 24.44° C | 55% | 1014.1 hPa | 0 mm | - | 836 W/m² | - |
| 1787744404 | 23.89° C | 58% | 1014.3 hPa | 0 mm | - | 826 W/m² | - |
| 1787744104 | 23.89° C | 58% | 1014.3 hPa | 0 mm | - | 243 W/m² | - |
| 1787743804 | 23.89° C | 59% | 1014.1 hPa | 0 mm | - | 219 W/m² | - |
| 1787743504 | 24.44° C | 56% | 1014 hPa | 0 mm | - | 287 W/m² | - |
| 1787743204 | 25° C | 56% | 1014.5 hPa | 0 mm | - | 762 W/m² | - |
| 1787742904 | 23.89° C | 60% | 1014.5 hPa | 0 mm | - | 646 W/m² | - |
| 1787742604 | 23.89° C | 61% | 1014.3 hPa | 0 mm | - | 241 W/m² | - |
| 1787742304 | 23.33° C | 62% | 1014.4 hPa | 0 mm | - | 214 W/m² | - |
| 1787742004 | 23.89° C | 62% | 1014.1 hPa | 0 mm | - | 199 W/m² | - |
| 1787741704 | 23.89° C | 62% | 1014.4 hPa | 0 mm | - | 258 W/m² | - |
| 1787741404 | 23.33° C | 64% | 1014.1 hPa | 0 mm | - | 239 W/m² | - |
| 1787741104 | 23.33° C | 62% | 1014.3 hPa | 0 mm | - | 164 W/m² | - |
| 1787740804 | 23.33° C | 63% | 1014.2 hPa | 0 mm | - | 239 W/m² | - |
* Rain latest hour (hover to see other rain measurements)
** Current wind speed in m/s (hover to see current wind gust speed)